createdAt,value
2018-05-17T00:00:56.369Z,100113.19
2018-05-17T00:02:03.253Z,100111.75
2018-05-17T00:03:09.508Z,100111.87
2018-05-17T00:04:15.833Z,100113.70
2018-05-17T00:05:22.337Z,100115.46
2018-05-17T00:06:28.584Z,100111.89
2018-05-17T00:07:34.853Z,100115.93
2018-05-17T00:08:41.187Z,100117.30
2018-05-17T00:09:48.260Z,100113.22
2018-05-17T00:10:58.984Z,100112.44
2018-05-17T00:12:05.228Z,100110.82
2018-05-17T00:13:11.204Z,100109.88
2018-05-17T00:14:17.642Z,100108.44
2018-05-17T00:15:24.095Z,100111.02
2018-05-17T00:16:30.512Z,100117.16
2018-05-17T00:17:36.786Z,100108.37
2018-05-17T00:18:43.161Z,100110.59
2018-05-17T00:19:49.416Z,100107.25
2018-05-17T00:20:57.063Z,100111.06
2018-05-17T00:22:03.520Z,100112.53
2018-05-17T00:23:09.820Z,100114.08
2018-05-17T00:24:15.810Z,100110.64
2018-05-17T00:25:22.085Z,100106.83
2018-05-17T00:26:28.441Z,100111.60
2018-05-17T00:27:35.532Z,100108.14
2018-05-17T00:28:41.855Z,100108.84
2018-05-17T00:29:48.161Z,100110.31
2018-05-17T00:30:54.508Z,100102.91
2018-05-17T00:32:00.823Z,100103.24
2018-05-17T00:33:07.131Z,100102.70
2018-05-17T00:34:13.413Z,100100.02
2018-05-17T00:35:19.788Z,100102.23
2018-05-17T00:36:26.852Z,100101.00
2018-05-17T00:37:34.414Z,100101.42
2018-05-17T00:38:40.702Z,100098.98
2018-05-17T00:39:47.024Z,100102.22
2018-05-17T00:40:53.377Z,100106.46
2018-05-17T00:41:59.657Z,100098.11
2018-05-17T00:43:05.969Z,100107.44
2018-05-17T00:44:12.381Z,100102.42
2018-05-17T00:45:19.649Z,100101.66
2018-05-17T00:46:25.937Z,100097.56
2018-05-17T00:47:32.260Z,100110.30
2018-05-17T00:48:38.537Z,100104.59
2018-05-17T00:49:45.505Z,100106.73
2018-05-17T00:50:51.907Z,100110.69
2018-05-17T00:51:58.727Z,100107.00
2018-05-17T00:53:16.101Z,100110.30
2018-05-17T00:54:22.185Z,100105.02
2018-05-17T00:55:28.468Z,100107.26
2018-05-17T00:56:34.782Z,100107.61
2018-05-17T00:57:41.759Z,100109.86
2018-05-17T00:58:49.645Z,100109.31
2018-05-17T00:59:55.962Z,100107.91
2018-05-17T01:01:02.280Z,100106.16
2018-05-17T01:02:08.849Z,100107.16
2018-05-17T01:03:15.235Z,100101.72
2018-05-17T01:04:21.596Z,100108.66
2018-05-17T01:05:27.734Z,100107.12
2018-05-17T01:06:34.049Z,100107.33
2018-05-17T01:07:41.476Z,100102.08
2018-05-17T01:08:47.728Z,100100.84
2018-05-17T01:09:55.581Z,100103.88
2018-05-17T01:11:01.849Z,100103.55
2018-05-17T01:12:14.982Z,100101.41
2018-05-17T01:13:22.649Z,100095.11
2018-05-17T01:14:28.877Z,100097.20
2018-05-17T01:15:35.438Z,100099.77
2018-05-17T01:16:42.057Z,100098.02
2018-05-17T01:17:48.449Z,100095.42
2018-05-17T01:18:54.753Z,100103.09
2018-05-17T01:20:01.065Z,100096.53
2018-05-17T01:21:07.411Z,100095.48
2018-05-17T01:22:13.613Z,100097.19
2018-05-17T01:23:19.880Z,100096.94
2018-05-17T01:24:26.232Z,100095.50
2018-05-17T01:25:32.519Z,100101.19
2018-05-17T01:26:38.481Z,100096.96
2018-05-17T01:27:44.760Z,100100.92
2018-05-17T01:28:51.172Z,100095.80
2018-05-17T01:29:57.456Z,100092.62
2018-05-17T01:31:03.801Z,100096.23
2018-05-17T01:32:10.079Z,100101.83
2018-05-17T01:33:16.420Z,100097.16
2018-05-17T01:34:22.708Z,100100.31
2018-05-17T01:35:30.333Z,100099.44
2018-05-17T01:36:49.577Z,100107.09
2018-05-17T01:38:07.690Z,100097.14
2018-05-17T01:39:13.733Z,100104.62
2018-05-17T01:40:19.678Z,100103.56
2018-05-17T01:41:25.753Z,100104.70
2018-05-17T01:42:32.094Z,100100.54
2018-05-17T01:43:38.373Z,100105.13
2018-05-17T01:44:44.664Z,100111.89
2018-05-17T01:45:50.992Z,100110.45
2018-05-17T01:46:57.334Z,100110.69
2018-05-17T01:48:03.340Z,100109.10
2018-05-17T01:49:10.105Z,100109.20
2018-05-17T01:50:16.964Z,100106.79
2018-05-17T01:51:23.312Z,100110.14
2018-05-17T01:52:29.361Z,100106.25
2018-05-17T01:53:35.732Z,100111.66
2018-05-17T01:54:42.024Z,100112.09
2018-05-17T01:55:48.311Z,100114.16
2018-05-17T01:56:54.613Z,100108.58
2018-05-17T01:58:01.599Z,100113.55
2018-05-17T01:59:07.857Z,100112.58
2018-05-17T02:00:14.161Z,100117.70
2018-05-17T02:01:20.493Z,100114.41
2018-05-17T02:02:27.716Z,100111.34
2018-05-17T02:03:34.063Z,100112.39
2018-05-17T02:04:40.356Z,100110.56
2018-05-17T02:05:47.273Z,100106.41
2018-05-17T02:06:53.568Z,100111.05
2018-05-17T02:07:59.880Z,100108.48
2018-05-17T02:09:05.222Z,100105.73
2018-05-17T02:10:11.491Z,100107.55
2018-05-17T02:11:17.822Z,100104.80
2018-05-17T02:12:24.118Z,100112.75
2018-05-17T02:13:30.452Z,100113.80
2018-05-17T02:14:37.445Z,100110.39
2018-05-17T02:15:43.636Z,100112.56
2018-05-17T02:16:50.021Z,100107.86
2018-05-17T02:17:56.300Z,100110.73
2018-05-17T02:19:02.635Z,100113.84
2018-05-17T02:20:08.921Z,100118.00
2018-05-17T02:21:15.251Z,100121.57
2018-05-17T02:22:21.556Z,100114.89
2018-05-17T02:23:27.877Z,100121.53
2018-05-17T02:24:35.065Z,100119.28
2018-05-17T02:25:41.427Z,100121.99
2018-05-17T02:26:47.705Z,100123.94
2018-05-17T02:27:54.601Z,100128.08
2018-05-17T02:29:00.966Z,100124.59
2018-05-17T02:30:07.252Z,100126.92
2018-05-17T02:31:13.678Z,100123.28
2018-05-17T02:32:20.609Z,100128.75
2018-05-17T02:33:28.090Z,100128.90
2018-05-17T02:34:34.473Z,100126.95
2018-05-17T02:35:40.548Z,100125.31
2018-05-17T02:36:47.521Z,100128.19
2018-05-17T02:37:53.801Z,100134.87
2018-05-17T02:38:59.826Z,100134.55
2018-05-17T02:40:06.255Z,100138.40
2018-05-17T02:41:13.201Z,100132.98
2018-05-17T02:42:20.122Z,100133.45
2018-05-17T02:43:26.479Z,100135.37
2018-05-17T02:44:35.180Z,100137.54
2018-05-17T02:45:41.472Z,100133.23
2018-05-17T02:46:47.805Z,100140.81
2018-05-17T02:47:54.092Z,100144.89
2018-05-17T02:49:00.442Z,100144.52
2018-05-17T02:50:06.679Z,100146.95
2018-05-17T02:51:13.192Z,100140.59
2018-05-17T02:52:19.442Z,100145.03
2018-05-17T02:53:25.741Z,100141.63
2018-05-17T02:54:32.088Z,100138.59
2018-05-17T02:55:38.386Z,100140.66
2018-05-17T02:56:45.301Z,100142.84
2018-05-17T02:57:52.898Z,100145.56
2018-05-17T02:58:59.148Z,100147.70
2018-05-17T03:00:05.621Z,100142.81
2018-05-17T03:01:11.529Z,100143.31
2018-05-17T03:02:17.542Z,100144.81
2018-05-17T03:03:23.896Z,100147.01
2018-05-17T03:04:30.217Z,100138.64
2018-05-17T03:05:36.489Z,100149.22
2018-05-17T03:06:42.852Z,100149.97
2018-05-17T03:07:49.133Z,100145.61
2018-05-17T03:08:55.445Z,100154.45
2018-05-17T03:10:01.757Z,100148.47
2018-05-17T03:11:08.050Z,100153.03
2018-05-17T03:12:14.067Z,100153.17
2018-05-17T03:13:21.195Z,100153.86
2018-05-17T03:14:27.272Z,100160.34
2018-05-17T03:15:33.522Z,100168.56
2018-05-17T03:16:39.511Z,100160.77
2018-05-17T03:17:46.649Z,100159.77
2018-05-17T03:18:53.089Z,100161.62
2018-05-17T03:19:59.343Z,100161.58
2018-05-17T03:21:05.673Z,100160.12
2018-05-17T03:22:12.602Z,100165.28
2018-05-17T03:23:18.904Z,100168.34
2018-05-17T03:24:25.253Z,100168.27
2018-05-17T03:25:31.252Z,100171.15
2018-05-17T03:26:37.549Z,100166.30
2018-05-17T03:27:43.301Z,100173.44
2018-05-17T03:28:49.754Z,100166.56
2018-05-17T03:29:56.386Z,100171.80
2018-05-17T03:31:02.793Z,100175.83
2018-05-17T03:32:09.105Z,100181.81
2018-05-17T03:33:15.370Z,100182.34
2018-05-17T03:34:21.663Z,100173.41
2018-05-17T03:35:27.950Z,100176.54
2018-05-17T03:36:34.228Z,100176.94
2018-05-17T03:37:41.319Z,100176.58
2018-05-17T03:38:47.605Z,100180.61
2018-05-17T03:39:54.524Z,100177.50
2018-05-17T03:41:00.916Z,100184.56
2018-05-17T03:42:07.259Z,100183.73
2018-05-17T03:43:13.578Z,100185.05
2018-05-17T03:44:19.998Z,100178.00
2018-05-17T03:45:26.296Z,100182.28
2018-05-17T03:46:32.520Z,100177.79
2018-05-17T03:47:38.830Z,100181.06
2018-05-17T03:48:45.924Z,100181.81
2018-05-17T03:49:52.369Z,100177.58
2018-05-17T03:50:58.421Z,100180.11
2018-05-17T03:52:04.193Z,100182.38
2018-05-17T03:53:10.561Z,100189.50
2018-05-17T03:54:16.888Z,100183.48
2018-05-17T03:55:24.327Z,100185.69
2018-05-17T03:56:30.648Z,100181.70
2018-05-17T03:57:36.953Z,100181.81
2018-05-17T03:58:43.288Z,100187.47
2018-05-17T03:59:49.593Z,100179.36
2018-05-17T04:01:07.874Z,100194.16
2018-05-17T04:02:24.820Z,100187.30
2018-05-17T04:03:41.941Z,100194.09
2018-05-17T04:04:58.942Z,100191.56
2018-05-17T04:06:15.979Z,100199.78
2018-05-17T04:07:22.118Z,100198.75
2018-05-17T04:08:28.121Z,100197.26
2018-05-17T04:09:34.390Z,100199.71
2018-05-17T04:10:40.451Z,100196.48
2018-05-17T04:11:46.705Z,100201.08
2018-05-17T04:12:53.242Z,100201.45
2018-05-17T04:13:59.600Z,100194.66
2018-05-17T04:15:05.504Z,100196.94
2018-05-17T04:16:11.768Z,100204.47
2018-05-17T04:17:18.100Z,100203.55
2018-05-17T04:18:24.548Z,100205.02
2018-05-17T04:19:30.948Z,100200.38
2018-05-17T04:20:37.242Z,100205.91
2018-05-17T04:21:43.560Z,100202.77
2018-05-17T04:22:49.873Z,100204.13
2018-05-17T04:23:56.651Z,100201.75
2018-05-17T04:25:03.928Z,100207.71
2018-05-17T04:26:10.752Z,100206.43
2018-05-17T04:27:17.062Z,100204.67
2018-05-17T04:28:23.368Z,100210.77
2018-05-17T04:29:29.684Z,100203.44
2018-05-17T04:30:35.976Z,100212.98
2018-05-17T04:31:42.312Z,100209.24
2018-05-17T04:32:48.581Z,100211.95
2018-05-17T04:33:54.928Z,100214.83
2018-05-17T04:35:01.218Z,100217.77
2018-05-17T04:36:08.229Z,100219.84
2018-05-17T04:37:14.546Z,100211.59
2018-05-17T04:38:21.554Z,100212.12
2018-05-17T04:39:37.406Z,100217.86
2018-05-17T04:40:44.020Z,100221.76
2018-05-17T04:41:50.208Z,100225.04
2018-05-17T04:42:58.524Z,100223.47
2018-05-17T04:44:04.769Z,100231.23
2018-05-17T04:45:11.150Z,100221.95
2018-05-17T04:46:18.307Z,100223.02
2018-05-17T04:47:24.561Z,100226.28
2018-05-17T04:48:30.907Z,100227.78
2018-05-17T04:49:37.281Z,100224.86
2018-05-17T04:50:43.828Z,100222.05
2018-05-17T04:51:50.085Z,100227.70
2018-05-17T04:52:56.109Z,100217.92
2018-05-17T04:54:02.425Z,100218.74
2018-05-17T04:55:08.774Z,100226.85
2018-05-17T04:56:16.517Z,100224.73
2018-05-17T04:57:22.938Z,100230.28
2018-05-17T04:58:29.240Z,100228.64
2018-05-17T04:59:35.551Z,100232.84
2018-05-17T05:00:41.862Z,100227.70
2018-05-17T05:01:48.174Z,100234.69
2018-05-17T05:02:54.628Z,100233.87
2018-05-17T05:04:02.777Z,100233.95
2018-05-17T05:05:09.213Z,100234.70
2018-05-17T05:06:15.679Z,100233.72
2018-05-17T05:07:21.666Z,100238.27
2018-05-17T05:08:27.951Z,100240.14
2018-05-17T05:09:34.275Z,100242.53
2018-05-17T05:10:41.899Z,100241.09
2018-05-17T05:11:50.389Z,100247.28
2018-05-17T05:12:56.934Z,100241.27
2018-05-17T05:14:04.667Z,100248.59
2018-05-17T05:15:11.572Z,100251.15
2018-05-17T05:16:18.687Z,100254.48
2018-05-17T05:17:25.474Z,100253.36
2018-05-17T05:18:32.272Z,100258.74
2018-05-17T05:19:38.791Z,100254.05
2018-05-17T05:20:45.517Z,100253.08
2018-05-17T05:21:51.818Z,100244.23
2018-05-17T05:22:58.112Z,100256.48
2018-05-17T05:24:04.813Z,100254.99
2018-05-17T05:25:11.153Z,100256.50
2018-05-17T05:26:17.678Z,100246.55
2018-05-17T05:27:24.770Z,100260.98
2018-05-17T05:28:31.618Z,100257.25
2018-05-17T05:29:37.924Z,100261.97
2018-05-17T05:30:44.909Z,100271.78
2018-05-17T05:31:51.206Z,100272.25
2018-05-17T05:32:57.442Z,100266.91
2018-05-17T05:34:03.788Z,100266.72
2018-05-17T05:35:11.263Z,100261.72
2018-05-17T05:36:17.553Z,100268.76
2018-05-17T05:37:23.974Z,100275.53
2018-05-17T05:38:30.287Z,100276.48
2018-05-17T05:39:36.553Z,100281.35
2018-05-17T05:40:42.888Z,100284.64
2018-05-17T05:41:49.200Z,100279.81
2018-05-17T05:42:55.958Z,100283.76
2018-05-17T05:44:02.202Z,100285.86
2018-05-17T05:45:08.464Z,100285.13
2018-05-17T05:46:14.769Z,100287.99
2018-05-17T05:47:20.986Z,100286.61
2018-05-17T05:48:27.302Z,100291.57
2018-05-17T05:49:33.583Z,100283.09
2018-05-17T05:50:39.897Z,100295.67
2018-05-17T05:51:46.212Z,100300.24
2018-05-17T05:52:53.340Z,100293.09
2018-05-17T05:53:59.882Z,100291.87
2018-05-17T05:55:06.245Z,100284.73
2018-05-17T05:56:12.596Z,100292.20
2018-05-17T05:57:18.900Z,100289.70
2018-05-17T05:58:25.206Z,100289.44
2018-05-17T05:59:32.115Z,100295.92
2018-05-17T06:00:38.425Z,100299.61
2018-05-17T06:01:44.768Z,100300.77
2018-05-17T06:02:51.053Z,100293.92
2018-05-17T06:03:57.529Z,100303.92
2018-05-17T06:05:03.745Z,100299.38
2018-05-17T06:06:10.604Z,100296.19
2018-05-17T06:07:16.924Z,100305.14
2018-05-17T06:08:23.307Z,100305.94
2018-05-17T06:09:29.821Z,100304.33
2018-05-17T06:10:36.053Z,100303.77
2018-05-17T06:11:42.405Z,100302.91
2018-05-17T06:12:48.712Z,100312.02
2018-05-17T06:13:55.198Z,100310.41
2018-05-17T06:15:01.546Z,100314.88
2018-05-17T06:16:08.091Z,100305.87
2018-05-17T06:17:14.354Z,100308.41
2018-05-17T06:18:20.677Z,100313.41
2018-05-17T06:19:27.014Z,100312.22
2018-05-17T06:20:33.247Z,100320.31
2018-05-17T06:21:41.012Z,100308.60
2018-05-17T06:22:48.688Z,100314.30
2018-05-17T06:23:54.988Z,100308.89
2018-05-17T06:25:01.269Z,100316.49
2018-05-17T06:26:07.606Z,100322.68
2018-05-17T06:27:14.668Z,100324.36
2018-05-17T06:28:20.898Z,100320.97
2018-05-17T06:29:27.271Z,100326.30
2018-05-17T06:30:34.897Z,100320.94
2018-05-17T06:31:41.212Z,100319.85
2018-05-17T06:32:47.533Z,100323.20
2018-05-17T06:33:53.826Z,100327.11
2018-05-17T06:35:01.049Z,100332.09
2018-05-17T06:36:07.265Z,100329.41
2018-05-17T06:37:13.603Z,100330.20
2018-05-17T06:38:19.922Z,100333.78
2018-05-17T06:39:25.887Z,100336.85
2018-05-17T06:40:32.300Z,100341.77
2018-05-17T06:41:38.644Z,100342.86
2018-05-17T06:42:44.928Z,100340.61
2018-05-17T06:43:51.256Z,100342.32
2018-05-17T06:44:57.850Z,100343.88
2018-05-17T06:46:03.492Z,100343.64
2018-05-17T06:47:09.807Z,100334.47
2018-05-17T06:48:16.101Z,100344.00
2018-05-17T06:49:22.405Z,100347.16
2018-05-17T06:50:29.904Z,100343.31
2018-05-17T06:51:36.777Z,100350.42
2018-05-17T06:52:43.116Z,100343.67
2018-05-17T06:53:49.368Z,100347.89
2018-05-17T06:54:55.680Z,100343.44
2018-05-17T06:56:02.014Z,100342.38
2018-05-17T06:57:08.924Z,100353.34
2018-05-17T06:58:15.235Z,100346.99
2018-05-17T06:59:21.530Z,100348.17
2018-05-17T07:00:27.818Z,100349.56
2018-05-17T07:01:34.272Z,100345.87
2018-05-17T07:02:41.240Z,100347.55
2018-05-17T07:03:47.681Z,100352.52
2018-05-17T07:04:54.069Z,100357.95
2018-05-17T07:06:01.188Z,100349.41
2018-05-17T07:07:08.321Z,100350.81
2018-05-17T07:08:14.317Z,100354.50
2018-05-17T07:09:22.825Z,100360.82
2018-05-17T07:10:36.097Z,100359.98
2018-05-17T07:11:42.374Z,100366.23
2018-05-17T07:12:48.670Z,100361.23
2018-05-17T07:13:54.978Z,100361.92
2018-05-17T07:15:01.257Z,100370.34
2018-05-17T07:16:07.574Z,100361.40
2018-05-17T07:17:13.938Z,100366.41
2018-05-17T07:18:20.525Z,100370.66
2018-05-17T07:19:27.565Z,100369.27
2018-05-17T07:20:33.971Z,100378.17
2018-05-17T07:21:40.663Z,100375.24
2018-05-17T07:22:47.493Z,100379.98
2018-05-17T07:23:53.735Z,100375.24
2018-05-17T07:25:00.030Z,100371.63
2018-05-17T07:26:06.319Z,100379.14
2018-05-17T07:27:12.536Z,100383.47
2018-05-17T07:28:18.877Z,100387.20
2018-05-17T07:29:25.783Z,100391.41
2018-05-17T07:30:35.605Z,100393.27
2018-05-17T07:31:43.814Z,100393.42
2018-05-17T07:32:50.180Z,100393.77
2018-05-17T07:33:56.455Z,100390.28
2018-05-17T07:35:02.801Z,100391.33
2018-05-17T07:36:09.069Z,100383.52
2018-05-17T07:37:16.114Z,100389.39
2018-05-17T07:38:23.706Z,100381.98
2018-05-17T07:39:30.060Z,100392.13
2018-05-17T07:40:36.388Z,100386.75
2018-05-17T07:41:42.721Z,100395.24
2018-05-17T07:42:49.008Z,100385.43
2018-05-17T07:43:55.907Z,100393.27
2018-05-17T07:45:02.118Z,100390.21
2018-05-17T07:46:08.067Z,100396.95
2018-05-17T07:47:14.342Z,100395.50
2018-05-17T07:48:20.776Z,100391.80
2018-05-17T07:49:27.974Z,100393.33
2018-05-17T07:50:34.198Z,100400.42
2018-05-17T07:51:46.504Z,100401.73
2018-05-17T07:52:53.521Z,100407.61
2018-05-17T07:54:00.470Z,100401.16
2018-05-17T07:55:06.697Z,100413.39
2018-05-17T07:56:13.017Z,100410.09
2018-05-17T07:57:19.357Z,100410.85
2018-05-17T07:58:25.685Z,100410.66
2018-05-17T07:59:35.457Z,100416.30
2018-05-17T08:00:41.724Z,100412.44
2018-05-17T08:01:48.131Z,100407.84
2018-05-17T08:02:54.601Z,100407.88
2018-05-17T08:04:02.103Z,100414.17
2018-05-17T08:05:08.835Z,100416.13
2018-05-17T08:06:14.909Z,100414.66
2018-05-17T08:07:21.137Z,100408.15
2018-05-17T08:08:28.150Z,100420.05
2018-05-17T08:09:35.329Z,100410.17
2018-05-17T08:10:41.616Z,100411.39
2018-05-17T08:11:47.832Z,100413.56
2018-05-17T08:12:54.044Z,100409.98
2018-05-17T08:14:00.350Z,100410.05
2018-05-17T08:15:06.674Z,100409.31
2018-05-17T08:16:12.617Z,100414.73
2018-05-17T08:17:18.903Z,100407.23
2018-05-17T08:18:25.226Z,100408.81
2018-05-17T08:19:31.442Z,100412.25
2018-05-17T08:20:37.753Z,100410.88
2018-05-17T08:21:44.015Z,100409.73
2018-05-17T08:22:50.469Z,100413.87
2018-05-17T08:23:56.701Z,100411.47
2018-05-17T08:25:03.483Z,100409.41
2018-05-17T08:26:09.996Z,100403.61
2018-05-17T08:27:16.315Z,100404.80
2018-05-17T08:28:22.642Z,100407.10
2018-05-17T08:29:28.933Z,100413.69
2018-05-17T08:30:35.286Z,100409.17
2018-05-17T08:31:41.572Z,100410.66
2018-05-17T08:32:47.886Z,100407.53
2018-05-17T08:34:00.328Z,100410.69
2018-05-17T08:35:06.588Z,100411.81
2018-05-17T08:36:12.908Z,100414.44
2018-05-17T08:37:19.363Z,100419.12
2018-05-17T08:38:25.702Z,100419.05
2018-05-17T08:39:31.983Z,100422.47
2018-05-17T08:40:38.998Z,100419.34
2018-05-17T08:41:45.338Z,100425.41
2018-05-17T08:42:51.548Z,100423.44
2018-05-17T08:43:57.870Z,100428.47
2018-05-17T08:45:03.788Z,100425.73
2018-05-17T08:46:10.174Z,100436.53
2018-05-17T08:47:16.495Z,100431.62
2018-05-17T08:48:22.804Z,100433.57
2018-05-17T08:49:29.149Z,100437.55
2018-05-17T08:50:35.863Z,100428.66
2018-05-17T08:51:42.169Z,100431.92
2018-05-17T08:52:48.758Z,100436.64
2018-05-17T08:53:55.088Z,100433.51
2018-05-17T08:55:01.565Z,100430.77
2018-05-17T08:56:07.571Z,100431.55
2018-05-17T08:57:14.521Z,100432.57
2018-05-17T08:58:20.820Z,100436.62
2018-05-17T08:59:27.157Z,100441.89
2018-05-17T09:00:33.532Z,100436.91
2018-05-17T09:01:39.894Z,100437.34
2018-05-17T09:02:46.376Z,100439.68
2018-05-17T09:03:52.739Z,100434.58
2018-05-17T09:04:59.148Z,100436.27
2018-05-17T09:06:05.187Z,100441.50
2018-05-17T09:07:11.529Z,100437.97
2018-05-17T09:08:17.835Z,100440.97
2018-05-17T09:09:24.184Z,100441.80
2018-05-17T09:10:30.145Z,100437.16
2018-05-17T09:11:37.058Z,100447.06
2018-05-17T09:12:43.495Z,100448.41
2018-05-17T09:13:49.884Z,100441.77
2018-05-17T09:14:56.347Z,100440.32
2018-05-17T09:16:03.456Z,100440.25
2018-05-17T09:17:10.827Z,100453.55
2018-05-17T09:18:17.317Z,100443.63
2018-05-17T09:19:23.628Z,100448.23
2018-05-17T09:20:30.070Z,100444.37
2018-05-17T09:21:36.647Z,100441.55
2018-05-17T09:22:43.330Z,100442.65
2018-05-17T09:23:49.601Z,100448.11
2018-05-17T09:24:55.606Z,100445.59
2018-05-17T09:26:01.926Z,100449.41
2018-05-17T09:27:08.956Z,100458.76
2018-05-17T09:28:15.266Z,100451.95
2018-05-17T09:29:21.675Z,100452.95
2018-05-17T09:30:27.964Z,100458.30
2018-05-17T09:31:35.016Z,100451.31
2018-05-17T09:32:42.004Z,100460.77
2018-05-17T09:33:48.416Z,100461.02
2018-05-17T09:34:54.805Z,100460.86
2018-05-17T09:36:01.185Z,100468.59
2018-05-17T09:37:07.480Z,100467.67
2018-05-17T09:38:13.775Z,100470.28
2018-05-17T09:39:20.125Z,100471.14
2018-05-17T09:40:26.392Z,100468.04
2018-05-17T09:41:32.725Z,100458.91
2018-05-17T09:42:39.033Z,100466.46
2018-05-17T09:43:45.333Z,100461.49
2018-05-17T09:44:52.148Z,100468.87
2018-05-17T09:45:58.614Z,100463.20
2018-05-17T09:47:04.982Z,100467.29
2018-05-17T09:48:11.509Z,100468.61
2018-05-17T09:49:17.854Z,100470.63
2018-05-17T09:50:24.154Z,100470.84
2018-05-17T09:51:30.428Z,100474.42
2018-05-17T09:52:36.779Z,100472.55
2018-05-17T09:53:43.145Z,100474.87
2018-05-17T09:54:49.501Z,100474.66
2018-05-17T09:55:55.797Z,100474.20
2018-05-17T09:57:02.140Z,100479.23
2018-05-17T09:58:08.393Z,100479.69
2018-05-17T09:59:14.924Z,100472.13
2018-05-17T10:00:21.816Z,100470.17
2018-05-17T10:01:28.912Z,100473.23
2018-05-17T10:02:35.797Z,100472.73
2018-05-17T10:03:42.051Z,100477.16
2018-05-17T10:04:48.380Z,100476.18
2018-05-17T10:05:54.767Z,100473.78
2018-05-17T10:07:01.052Z,100474.76
2018-05-17T10:08:07.361Z,100473.52
2018-05-17T10:09:13.926Z,100474.59
2018-05-17T10:10:20.330Z,100474.09
2018-05-17T10:11:26.580Z,100478.13
2018-05-17T10:12:32.834Z,100472.98
2018-05-17T10:13:39.138Z,100469.82
2018-05-17T10:14:45.521Z,100476.16
2018-05-17T10:15:52.365Z,100470.84
2018-05-17T10:16:58.579Z,100472.19
2018-05-17T10:18:04.895Z,100465.03
2018-05-17T10:19:12.077Z,100473.20
2018-05-17T10:20:18.345Z,100464.44
2018-05-17T10:21:24.657Z,100468.81
2018-05-17T10:22:32.145Z,100468.45
2018-05-17T10:23:38.528Z,100471.45
2018-05-17T10:24:44.941Z,100470.97
2018-05-17T10:25:51.178Z,100475.60
2018-05-17T10:26:57.430Z,100478.60
2018-05-17T10:28:03.733Z,100473.61
2018-05-17T10:29:10.060Z,100473.69
2018-05-17T10:30:16.389Z,100479.84
2018-05-17T10:31:22.676Z,100473.64
2018-05-17T10:32:28.997Z,100480.63
2018-05-17T10:33:35.333Z,100473.22
2018-05-17T10:34:41.763Z,100479.11
2018-05-17T10:35:48.152Z,100476.36
2018-05-17T10:36:54.438Z,100483.39
2018-05-17T10:38:00.771Z,100484.78
2018-05-17T10:39:08.596Z,100487.16
2018-05-17T10:40:15.955Z,100483.58
2018-05-17T10:41:22.972Z,100486.09
2018-05-17T10:42:29.280Z,100471.85
2018-05-17T10:43:35.581Z,100482.80
2018-05-17T10:44:41.800Z,100476.98
2018-05-17T10:45:48.247Z,100475.76
2018-05-17T10:46:54.492Z,100479.62
2018-05-17T10:48:01.518Z,100479.29
2018-05-17T10:49:07.760Z,100474.70
2018-05-17T10:50:14.091Z,100473.89
2018-05-17T10:51:20.616Z,100466.58
2018-05-17T10:52:26.905Z,100472.58
2018-05-17T10:53:33.240Z,100472.96
2018-05-17T10:54:40.400Z,100480.19
2018-05-17T10:55:47.378Z,100475.64
2018-05-17T10:56:53.789Z,100481.32
2018-05-17T10:58:00.105Z,100485.17
2018-05-17T10:59:06.433Z,100478.94
2018-05-17T11:00:12.384Z,100478.59
2018-05-17T11:01:18.810Z,100469.69
2018-05-17T11:02:25.041Z,100478.28
2018-05-17T11:03:31.391Z,100480.33
2018-05-17T11:04:37.660Z,100475.22
2018-05-17T11:05:43.998Z,100481.83
2018-05-17T11:06:50.268Z,100478.58
2018-05-17T11:07:56.539Z,100465.99
2018-05-17T11:09:03.000Z,100472.15
2018-05-17T11:10:09.618Z,100483.70
2018-05-17T11:11:17.050Z,100481.11
2018-05-17T11:12:23.415Z,100481.64
2018-05-17T11:13:29.708Z,100477.75
2018-05-17T11:14:36.332Z,100479.45
2018-05-17T11:15:43.345Z,100477.22
2018-05-17T11:16:49.662Z,100472.81
2018-05-17T11:17:56.567Z,100483.58
2018-05-17T11:19:02.827Z,100482.62
2018-05-17T11:20:09.225Z,100473.59
2018-05-17T11:21:15.551Z,100480.05
2018-05-17T11:22:21.841Z,100482.48
2018-05-17T11:23:28.170Z,100474.37
2018-05-17T11:24:34.627Z,100478.37
2018-05-17T11:25:40.887Z,100473.75
2018-05-17T11:26:47.663Z,100469.12
2018-05-17T11:27:54.008Z,100483.75
2018-05-17T11:29:00.960Z,100485.81
2018-05-17T11:30:07.320Z,100483.47
2018-05-17T11:31:13.866Z,100487.96
2018-05-17T11:32:20.164Z,100478.08
2018-05-17T11:33:26.536Z,100484.90
2018-05-17T11:34:33.552Z,100485.37
2018-05-17T11:35:39.841Z,100486.77
2018-05-17T11:36:46.140Z,100488.70
2018-05-17T11:37:52.490Z,100479.45
2018-05-17T11:38:58.757Z,100484.78
2018-05-17T11:40:05.498Z,100477.00
2018-05-17T11:41:12.683Z,100471.78
2018-05-17T11:42:22.063Z,100481.23
2018-05-17T11:43:34.527Z,100480.25
2018-05-17T11:44:40.757Z,100479.52
2018-05-17T11:45:47.077Z,100472.22
2018-05-17T11:46:54.151Z,100482.73
2018-05-17T11:48:00.429Z,100476.72
2018-05-17T11:49:06.697Z,100470.28
2018-05-17T11:50:12.954Z,100469.37
2018-05-17T11:51:19.246Z,100476.63
2018-05-17T11:52:25.553Z,100476.09
2018-05-17T11:53:31.888Z,100473.25
2018-05-17T11:54:38.170Z,100469.45
2018-05-17T11:55:44.221Z,100466.07
2018-05-17T11:56:50.509Z,100474.94
2018-05-17T11:57:56.797Z,100477.76
2018-05-17T11:59:03.120Z,100471.66
2018-05-17T12:00:09.449Z,100472.88
2018-05-17T12:01:15.773Z,100475.44
2018-05-17T12:02:22.022Z,100482.67
2018-05-17T12:03:29.366Z,100469.70
2018-05-17T12:04:40.098Z,100468.67
2018-05-17T12:05:46.441Z,100472.61
2018-05-17T12:06:52.768Z,100475.64
2018-05-17T12:07:59.029Z,100462.21
2018-05-17T12:09:04.641Z,100464.45
2018-05-17T12:10:11.016Z,100469.09
2018-05-17T12:11:17.699Z,100452.31
2018-05-17T12:12:23.978Z,100474.22
2018-05-17T12:13:30.259Z,100471.77
2018-05-17T12:14:36.511Z,100470.77
2018-05-17T12:15:42.842Z,100458.28
2018-05-17T12:16:49.163Z,100467.34
2018-05-17T12:17:55.890Z,100468.77
2018-05-17T12:19:02.885Z,100466.17
2018-05-17T12:20:08.892Z,100465.80
2018-05-17T12:21:15.183Z,100470.16
2018-05-17T12:22:21.538Z,100473.56
2018-05-17T12:23:27.831Z,100465.38
2018-05-17T12:24:34.142Z,100466.03
2018-05-17T12:25:40.408Z,100469.47
2018-05-17T12:26:46.689Z,100469.94
2018-05-17T12:27:52.945Z,100466.45
2018-05-17T12:29:00.186Z,100464.15
2018-05-17T12:30:05.850Z,100461.79
2018-05-17T12:31:12.604Z,100463.41
2018-05-17T12:32:18.958Z,100466.80
2018-05-17T12:33:26.062Z,100460.58
2018-05-17T12:34:33.233Z,100466.31
2018-05-17T12:35:39.488Z,100470.02
2018-05-17T12:36:46.090Z,100467.11
2018-05-17T12:37:52.429Z,100465.09
2018-05-17T12:38:58.774Z,100465.03
2018-05-17T12:40:04.556Z,100464.22
2018-05-17T12:41:11.345Z,100466.91